Time;durP1;ratioP1;P1;durP2;ratioP2;P2;SDS_P1;SDS_P2;PMS_P1;PMS_P2;Temp;Humidity;BMP_temperature;BMP_pressure;BME280_temperature;BME280_humidity;BME280_pressure;Samples;Min_cycle;Max_cycle;Signal;HPM_P1;HPM_P2
2022/01/27 00:02:33;;;;;;;23.97;11.93;;;;;;;-0.63;100.00;97489.34;5092656;28;20047;-49
2022/01/27 00:05:13;;;;;;;19.30;11.00;;;;;;;-0.58;100.00;97490.03;5131101;28;20037;-56
2022/01/27 00:07:42;;;;;;;24.73;11.47;;;;;;;-0.52;100.00;97487.28;5129934;28;20049;-56
2022/01/27 00:10:18;;;;;;;22.20;10.40;;;;;;;-0.50;100.00;97482.91;5129323;28;20483;-56
2022/01/27 00:12:45;;;;;;;19.13;9.37;;;;;;;-0.54;100.00;97485.66;5130219;28;20047;-55
2022/01/27 00:15:14;;;;;;;19.60;10.90;;;;;;;-0.55;100.00;97482.19;5129518;28;20031;-55
2022/01/27 00:17:45;;;;;;;24.50;11.70;;;;;;;-0.45;100.00;97482.78;5128977;28;20126;-54
2022/01/27 00:20:14;;;;;;;19.17;10.60;;;;;;;-0.45;100.00;97483.63;5129496;28;20051;-57
2022/01/27 00:22:43;;;;;;;20.93;9.27;;;;;;;-0.48;100.00;97494.06;5130036;28;20051;-52
2022/01/27 00:25:11;;;;;;;17.30;9.07;;;;;;;-0.48;100.00;97486.31;5129772;28;20035;-55
2022/01/27 00:27:38;;;;;;;20.90;8.67;;;;;;;-0.46;100.00;97486.25;5129329;28;20150;-56
2022/01/27 00:30:10;;;;;;;16.30;8.00;;;;;;;-0.43;100.00;97487.00;5111405;27;20043;-55
2022/01/27 00:32:37;;;;;;;20.13;10.03;;;;;;;-0.47;100.00;97490.56;5132667;27;20451;-54
2022/01/27 00:35:06;;;;;;;16.70;8.90;;;;;;;-0.43;100.00;97487.00;5133356;27;20040;-56
2022/01/27 00:37:33;;;;;;;17.00;8.43;;;;;;;-0.46;100.00;97481.91;5133141;27;20049;-54
2022/01/27 00:40:02;;;;;;;19.77;9.50;;;;;;;-0.48;100.00;97493.19;5133800;27;20047;-57
2022/01/27 00:42:30;;;;;;;18.03;8.57;;;;;;;-0.40;100.00;97492.09;5133365;27;20114;-55
2022/01/27 00:44:58;;;;;;;15.67;9.10;;;;;;;-0.39;100.00;97490.34;5133203;27;20035;-53
2022/01/27 00:47:25;;;;;;;12.90;7.90;;;;;;;-0.42;100.00;97491.31;5133227;27;20049;-57
2022/01/27 00:49:52;;;;;;;14.93;7.63;;;;;;;-0.44;100.00;97485.31;5127953;27;20452;-57
2022/01/27 00:52:27;;;;;;;14.80;7.40;;;;;;;-0.42;100.00;97487.84;5133266;27;20441;-55
2022/01/27 00:54:55;;;;;;;11.70;6.53;;;;;;;-0.40;100.00;97481.75;5133623;27;20129;-58
2022/01/27 00:57:36;;;;;;;15.23;6.47;;;;;;;-0.36;100.00;97483.34;5132934;27;20118;-53
2022/01/27 01:00:05;;;;;;;13.30;6.57;;;;;;;-0.41;100.00;97480.06;5132959;27;20038;-60
2022/01/27 01:02:42;;;;;;;13.83;6.97;;;;;;;-0.45;100.00;97475.88;5132335;27;20379;-57
2022/01/27 01:05:25;;;;;;;12.63;5.23;;;;;;;-0.40;100.00;97473.13;5133300;27;20050;-56
2022/01/27 01:07:56;;;;;;;13.17;5.30;;;;;;;-0.41;100.00;97479.22;5133186;27;20116;-55
2022/01/27 01:11:05;;;;;;;9.20;4.63;;;;;;;-0.39;100.00;97477.44;5114424;27;20285;-54
2022/01/27 01:14:18;;;;;;;8.10;4.27;;;;;;;-0.43;100.00;97471.50;5114626;27;20047;-57
2022/01/27 01:16:43;;;;;;;10.40;6.53;;;;;;;-0.47;100.00;97469.91;5131024;27;20479;-56
2022/01/27 01:19:21;;;;;;;9.43;5.03;;;;;;;-0.49;100.00;97460.50;5133087;27;20054;-56
2022/01/27 01:22:05;;;;;;;9.57;5.33;;;;;;;-0.48;100.00;97469.94;5114130;27;20391;-57
2022/01/27 01:30:20;;;;;;;9.83;5.93;;;;;;;-0.45;100.00;97449.19;5131784;27;20035;-56
2022/01/27 01:32:51;;;;;;;12.37;6.13;;;;;;;-0.43;100.00;97452.59;5133018;27;20043;-57
2022/01/27 01:35:27;;;;;;;9.80;6.30;;;;;;;-0.45;100.00;97451.78;5115139;27;20039;-57
2022/01/27 01:37:54;;;;;;;12.63;6.93;;;;;;;-0.42;100.00;97457.72;5132763;27;20406;-58
2022/01/27 01:40:21;;;;;;;10.10;5.90;;;;;;;-0.45;100.00;97457.78;5133358;27;20043;-58
2022/01/27 01:42:48;;;;;;;11.00;6.03;;;;;;;-0.44;100.00;97456.03;5113384;27;20134;-54
2022/01/27 01:45:21;;;;;;;10.37;6.27;;;;;;;-0.45;100.00;97451.78;5133219;27;20050;-56
2022/01/27 01:47:51;;;;;;;9.40;5.87;;;;;;;-0.42;100.00;97459.44;5133114;27;20096;-56
2022/01/27 01:50:18;;;;;;;15.43;7.33;;;;;;;-0.42;100.00;97454.28;5132956;27;20675;-55
2022/01/27 01:52:45;;;;;;;12.47;6.43;;;;;;;-0.38;100.00;97454.13;5132950;27;20071;-58
2022/01/27 01:55:14;;;;;;;10.27;5.53;;;;;;;-0.40;100.00;97442.13;5114400;27;20039;-58
2022/01/27 01:57:41;;;;;;;14.50;6.40;;;;;;;-0.39;100.00;97461.94;5132694;27;20096;-57
2022/01/27 02:00:10;;;;;;;11.93;6.07;;;;;;;-0.37;100.00;97457.53;5132457;27;20039;-58
2022/01/27 02:02:41;;;;;;;13.93;7.00;;;;;;;-0.36;100.00;97457.50;5132618;27;20055;-58
2022/01/27 02:05:09;;;;;;;11.37;6.17;;;;;;;-0.32;100.00;97458.28;5132498;27;20039;-55
2022/01/27 02:07:52;;;;;;;12.77;6.77;;;;;;;-0.36;100.00;97462.66;5132851;27;20046;-57
2022/01/27 02:10:33;;;;;;;11.65;6.25;;;;;;;-0.34;100.00;97467.78;5132092;27;20043;-57
2022/01/27 02:18:28;;;;;;;11.03;5.80;;;;;;;-0.35;100.00;97433.34;5078012;27;20062;-54
2022/01/27 02:20:57;;;;;;;13.73;6.10;;;;;;;-0.40;100.00;97440.41;5133004;27;20130;-56
2022/01/27 02:23:24;;;;;;;9.23;5.10;;;;;;;-0.42;100.00;97444.78;5132041;27;20126;-57
2022/01/27 02:25:51;;;;;;;11.50;6.23;;;;;;;-0.39;100.00;97447.25;5132014;27;20106;-56
2022/01/27 02:28:18;;;;;;;10.90;5.40;;;;;;;-0.38;100.00;97437.78;5131949;27;20069;-57
2022/01/27 02:30:46;;;;;;;16.63;7.53;;;;;;;-0.36;100.00;97452.34;5130701;27;20051;-56
2022/01/27 02:33:13;;;;;;;11.63;6.63;;;;;;;-0.35;100.00;97453.19;5131333;27;20092;-56
2022/01/27 02:35:40;;;;;;;11.73;6.53;;;;;;;-0.35;100.00;97448.84;5131978;27;20430;-55
2022/01/27 02:38:08;;;;;;;13.40;7.10;;;;;;;-0.35;100.00;97451.44;5131788;27;20499;-57
2022/01/27 02:40:43;;;;;;;16.60;6.53;;;;;;;-0.35;100.00;97443.69;5132096;27;20082;-58
2022/01/27 02:43:10;;;;;;;13.73;6.87;;;;;;;-0.35;100.00;97441.09;5131916;27;20535;-58
2022/01/27 02:45:41;;;;;;;10.13;5.13;;;;;;;-0.34;100.00;97445.41;5131682;27;22047;-55
2022/01/27 02:48:08;;;;;;;12.90;6.97;;;;;;;-0.39;100.00;97451.59;5132148;27;20051;-56
2022/01/27 02:50:35;;;;;;;13.13;7.03;;;;;;;-0.35;100.00;97442.84;5131455;27;20074;-57
2022/01/27 02:53:02;;;;;;;8.97;5.73;;;;;;;-0.39;100.00;97441.25;5131361;27;20054;-56
2022/01/27 02:55:30;;;;;;;9.97;6.03;;;;;;;-0.38;100.00;97436.06;5130949;27;20042;-57
2022/01/27 02:57:58;;;;;;;11.57;6.43;;;;;;;-0.40;100.00;97445.56;5131867;27;20406;-59
2022/01/27 03:00:26;;;;;;;12.30;6.87;;;;;;;-0.42;100.00;97447.38;5132871;27;20043;-49
2022/01/27 03:02:53;;;;;;;11.57;6.53;;;;;;;-0.40;100.00;97434.38;5133385;27;20043;-49
2022/01/27 03:05:20;;;;;;;8.37;5.80;;;;;;;-0.39;100.00;97441.25;5132696;27;20395;-55
2022/01/27 03:07:48;;;;;;;12.37;6.40;;;;;;;-0.38;100.00;97436.06;5131258;27;20062;-57
2022/01/27 03:10:16;;;;;;;13.80;6.53;;;;;;;-0.39;100.00;97447.25;5131642;27;20054;-50
2022/01/27 03:12:45;;;;;;;13.80;7.23;;;;;;;-0.35;100.00;97440.28;5131350;27;20039;-54
2022/01/27 03:15:12;;;;;;;13.23;8.03;;;;;;;-0.34;100.00;97450.56;5131189;27;20066;-57
2022/01/27 03:17:40;;;;;;;15.50;7.63;;;;;;;-0.39;100.00;97443.84;5131303;27;20043;-56
2022/01/27 03:20:08;;;;;;;20.47;9.83;;;;;;;-0.35;100.00;97446.28;5131222;27;20118;-57
2022/01/27 03:22:35;;;;;;;16.90;8.63;;;;;;;-0.38;100.00;97438.63;5131309;27;20035;-52
2022/01/27 03:25:03;;;;;;;15.83;8.77;;;;;;;-0.39;100.00;97442.09;5113146;27;20085;-54
2022/01/27 03:27:30;;;;;;;19.40;9.23;;;;;;;-0.45;100.00;97451.78;5131306;27;20039;-56
2022/01/27 03:29:58;;;;;;;16.30;8.27;;;;;;;-0.47;100.00;97451.00;5130984;27;20047;-55
2022/01/27 03:32:27;;;;;;;15.63;8.20;;;;;;;-0.41;100.00;97448.19;5130952;27;20047;-53
2022/01/27 03:34:54;;;;;;;16.77;8.80;;;;;;;-0.50;100.00;97448.50;5130018;27;20043;-55
2022/01/27 03:37:21;;;;;;;15.47;8.33;;;;;;;-0.45;100.00;97446.59;5131060;27;20072;-55
2022/01/27 03:39:48;;;;;;;9.53;6.07;;;;;;;-0.53;100.00;97441.69;5130536;27;20142;-54
2022/01/27 03:42:15;;;;;;;17.87;8.40;;;;;;;-0.47;100.00;97438.06;5129376;27;20825;-56
2022/01/27 03:44:42;;;;;;;13.90;7.50;;;;;;;-0.45;100.00;97451.78;5132563;28;20050;-55
2022/01/27 03:47:10;;;;;;;15.37;7.57;;;;;;;-0.46;100.00;97444.91;5131622;28;20035;-56
2022/01/27 03:49:37;;;;;;;14.20;8.03;;;;;;;-0.51;100.00;97449.34;5111475;28;20047;-52
2022/01/27 03:52:05;;;;;;;17.17;7.97;;;;;;;-0.52;100.00;97445.94;5130692;28;20138;-48
2022/01/27 03:54:31;;;;;;;15.67;8.87;;;;;;;-0.53;100.00;97449.44;5130691;28;20039;-49
2022/01/27 03:56:59;;;;;;;18.73;7.93;;;;;;;-0.58;100.00;97445.28;5130279;28;20483;-54
2022/01/27 03:59:26;;;;;;;15.23;8.50;;;;;;;-0.61;100.00;97450.53;5130800;28;20361;-54
2022/01/27 04:01:54;;;;;;;19.90;8.73;;;;;;;-0.58;100.00;97446.13;5112610;28;20391;-53
2022/01/27 04:04:23;;;;;;;14.70;8.77;;;;;;;-0.58;100.00;97453.88;5130452;28;20039;-55
2022/01/27 04:06:52;;;;;;;18.53;8.30;;;;;;;-0.60;100.00;97437.59;5133177;27;20055;-56
2022/01/27 04:09:20;;;;;;;15.80;7.90;;;;;;;-0.64;100.00;97448.91;5134971;27;20043;-55
2022/01/27 04:11:47;;;;;;;14.73;8.00;;;;;;;-0.59;100.00;97439.28;5136680;27;20074;-56
2022/01/27 04:14:14;;;;;;;18.33;8.07;;;;;;;-0.63;100.00;97440.25;5134707;27;20047;-55
2022/01/27 04:16:41;;;;;;;14.83;8.57;;;;;;;-0.58;100.00;97447.88;5134362;27;20391;-57
2022/01/27 04:19:08;;;;;;;14.80;7.97;;;;;;;-0.61;100.00;97443.63;5134210;27;20097;-54
2022/01/27 04:21:36;;;;;;;15.80;8.37;;;;;;;-0.62;100.00;97447.09;5135585;27;20080;-56
2022/01/27 04:24:04;;;;;;;13.07;7.03;;;;;;;-0.70;100.00;97435.31;5136443;27;20121;-55
2022/01/27 04:26:39;;;;;;;16.50;7.60;;;;;;;-0.69;100.00;97431.84;5134576;27;20498;-54
2022/01/27 04:29:06;;;;;;;15.47;7.20;;;;;;;-0.70;100.00;97446.50;5134601;27;20403;-55
2022/01/27 04:31:34;;;;;;;11.00;6.60;;;;;;;-0.73;100.00;97425.91;5134112;27;20092;-55
2022/01/27 04:34:01;;;;;;;14.03;6.87;;;;;;;-0.71;100.00;97433.63;5134361;27;20092;-54
2022/01/27 04:36:30;;;;;;;12.90;7.00;;;;;;;-0.66;100.00;97430.00;5134120;27;20039;-55
2022/01/27 04:39:08;;;;;;;12.00;6.50;;;;;;;-0.66;100.00;97430.00;5134152;27;20122;-55
2022/01/27 04:41:41;;;;;;;10.77;5.83;;;;;;;-0.71;100.00;97421.56;5134295;27;20039;-56
2022/01/27 04:44:17;;;;;;;;;;;;;;;-0.67;100.00;97428.31;5134757;27;20050;-57
2022/01/27 04:46:49;;;;;;;10.67;6.20;;;;;;;-0.74;100.00;97429.41;5134414;27;19923;-56
2022/01/27 04:49:16;;;;;;;10.00;6.28;;;;;;;-0.71;100.00;97423.28;5134038;27;20051;-56
2022/01/27 04:51:44;;;;;;;11.40;6.07;;;;;;;-0.73;100.00;97417.31;5135239;27;20035;-50
2022/01/27 04:54:17;;;;;;;13.90;6.43;;;;;;;-0.81;100.00;97422.72;5133997;27;20110;-49
2022/01/27 04:56:44;;;;;;;11.30;5.90;;;;;;;-0.82;100.00;97421.03;5134139;27;20051;-49
2022/01/27 04:59:17;;;;;;;12.63;5.90;;;;;;;-0.76;100.00;97420.84;5134052;27;20091;-50
2022/01/27 05:01:48;;;;;;;12.53;6.03;;;;;;;-0.77;100.00;97437.22;5134112;27;20123;-51
2022/01/27 05:04:18;;;;;;;14.00;6.77;;;;;;;-0.69;100.00;97434.44;5133881;27;20047;-56
2022/01/27 05:06:47;;;;;;;11.47;6.27;;;;;;;-0.72;100.00;97422.44;5133791;27;20054;-51
2022/01/27 05:09:16;;;;;;;12.93;6.17;;;;;;;-0.77;100.00;97426.03;5134628;27;20043;-57
2022/01/27 05:11:49;;;;;;;13.17;7.37;;;;;;;-0.75;100.00;97430.28;5116034;27;20579;-53
2022/01/27 05:14:19;;;;;;;14.18;8.02;;;;;;;-0.72;100.00;97434.53;5133531;27;20118;-54
2022/01/27 05:16:47;;;;;;;13.63;7.00;;;;;;;-0.68;100.00;97442.09;5133180;27;20043;-53
2022/01/27 05:19:14;;;;;;;15.17;8.03;;;;;;;-0.72;100.00;97429.34;5133538;27;20074;-52
2022/01/27 05:21:41;;;;;;;14.50;8.07;;;;;;;-0.70;100.00;97440.47;5133411;27;20035;-57
2022/01/27 05:24:10;;;;;;;13.20;7.63;;;;;;;-0.76;100.00;97423.41;5133612;27;20035;-54
2022/01/27 05:26:39;;;;;;;14.30;7.20;;;;;;;-0.81;100.00;97427.03;5134605;27;20047;-55
2022/01/27 05:29:08;;;;;;;14.20;7.53;;;;;;;-0.81;100.00;97435.63;5133323;27;20035;-50
2022/01/27 05:31:36;;;;;;;14.57;7.30;;;;;;;-0.81;100.00;97437.34;5132554;27;20050;-56
2022/01/27 05:34:03;;;;;;;13.33;6.43;;;;;;;-0.80;100.00;97439.06;5133416;27;20130;-56
2022/01/27 05:36:30;;;;;;;13.00;7.77;;;;;;;-0.79;100.00;97433.00;5133116;27;20039;-52
2022/01/27 05:38:57;;;;;;;14.93;7.67;;;;;;;-0.83;100.00;97436.56;5132882;27;20134;-54
2022/01/27 05:41:24;;;;;;;15.87;7.73;;;;;;;-0.80;100.00;97439.88;5132455;27;20039;-54
2022/01/27 05:43:53;;;;;;;13.40;7.23;;;;;;;-0.80;100.00;97439.88;5132824;27;20114;-53
2022/01/27 05:46:20;;;;;;;14.93;7.40;;;;;;;-0.84;100.00;97445.22;5133279;27;20063;-52
2022/01/27 05:48:47;;;;;;;12.67;6.73;;;;;;;-0.85;100.00;97454.69;5115310;27;20467;-55
2022/01/27 05:51:15;;;;;;;11.67;6.30;;;;;;;-0.81;100.00;97445.09;5132720;27;20074;-51
2022/01/27 05:53:42;;;;;;;12.90;6.73;;;;;;;-0.81;100.00;97447.69;5132653;27;20042;-55
2022/01/27 05:56:09;;;;;;;15.27;7.97;;;;;;;-0.83;100.00;97457.22;5114000;27;20039;-56
2022/01/27 05:58:36;;;;;;;13.93;7.40;;;;;;;-0.89;100.00;97460.81;5132555;27;20067;-53
2022/01/27 06:01:06;;;;;;;16.13;7.60;;;;;;;-0.86;100.00;97452.13;5131686;27;20043;-55
2022/01/27 06:03:33;;;;;;;12.97;7.40;;;;;;;-0.88;100.00;97447.03;5133432;27;20039;-54
2022/01/27 06:06:00;;;;;;;13.83;7.33;;;;;;;-0.95;100.00;97449.84;5132250;27;20035;-56
2022/01/27 06:08:29;;;;;;;13.87;6.93;;;;;;;-0.87;100.00;97456.44;5133918;27;20043;-57
2022/01/27 06:10:56;;;;;;;16.70;8.00;;;;;;;-0.90;100.00;97455.69;5132103;27;20051;-56
2022/01/27 06:13:23;;;;;;;13.27;7.40;;;;;;;-0.93;100.00;97458.38;5132835;27;20118;-56
2022/01/27 06:15:51;;;;;;;15.73;7.83;;;;;;;-0.95;100.00;97450.66;5132452;27;20537;-55
2022/01/27 06:18:19;;;;;;;14.77;7.40;;;;;;;-0.90;100.00;97459.13;5132339;27;20491;-55
2022/01/27 06:20:47;;;;;;;14.10;6.90;;;;;;;-0.86;100.00;97455.59;5132059;27;20070;-55
2022/01/27 06:23:15;;;;;;;15.47;8.77;;;;;;;-0.81;100.00;97464.03;5131859;27;20381;-54
2022/01/27 06:25:42;;;;;;;13.17;7.40;;;;;;;-0.84;100.00;97453.78;5132027;27;20073;-54
2022/01/27 06:28:09;;;;;;;15.37;7.13;;;;;;;-0.83;100.00;97458.03;5132226;27;20533;-56
2022/01/27 06:30:36;;;;;;;14.50;7.57;;;;;;;-0.84;100.00;97463.28;5132569;27;20059;-55
2022/01/27 06:33:03;;;;;;;13.03;7.63;;;;;;;-0.78;100.00;97450.19;5131615;27;20521;-55
2022/01/27 06:35:32;;;;;;;14.73;6.50;;;;;;;-0.86;100.00;97453.00;5131805;27;20092;-53
2022/01/27 06:38:00;;;;;;;13.90;7.77;;;;;;;-0.82;100.00;97456.31;5131725;27;20088;-54
2022/01/27 06:40:27;;;;;;;15.27;8.27;;;;;;;-0.72;100.00;97453.41;5131829;27;20431;-48
2022/01/27 06:42:54;;;;;;;16.73;7.67;;;;;;;-0.72;100.00;97448.25;5131641;27;20035;-53
2022/01/27 06:45:21;;;;;;;15.27;7.30;;;;;;;-0.67;100.00;97454.16;5131505;27;20039;-55
2022/01/27 06:47:48;;;;;;;17.83;8.17;;;;;;;-0.55;100.00;97451.19;5131602;27;20046;-57
2022/01/27 06:50:15;;;;;;;13.30;7.93;;;;;;;-0.45;100.00;97452.63;5131352;27;20054;-56
2022/01/27 06:52:44;;;;;;;15.03;7.40;;;;;;;-0.32;100.00;97460.84;5131302;27;20123;-56
2022/01/27 06:55:12;;;;;;;14.13;6.97;;;;;;;-0.26;100.00;97458.94;5131482;27;20051;-57
2022/01/27 06:57:39;;;;;;;13.77;7.50;;;;;;;-0.35;100.00;97456.59;5131332;27;20035;-57
2022/01/27 07:00:08;;;;;;;13.57;7.33;;;;;;;-0.35;100.00;97458.38;5131235;27;20035;-56
2022/01/27 07:02:35;;;;;;;16.07;8.83;;;;;;;-0.41;100.00;97459.41;5131144;27;20051;-55
2022/01/27 07:05:02;;;;;;;25.73;7.83;;;;;;;-0.43;100.00;97457.75;5131215;27;20043;-55
2022/01/27 07:07:29;;;;;;;14.60;8.03;;;;;;;-0.32;100.00;97445.34;5131155;27;20401;-53
2022/01/27 07:09:58;;;;;;;13.27;7.73;;;;;;;-0.26;100.00;97455.47;5131169;27;20071;-53
2022/01/27 07:12:25;;;;;;;11.93;6.93;;;;;;;-0.30;100.00;97451.31;5131261;27;20445;-56
2022/01/27 07:14:53;;;;;;;13.47;7.17;;;;;;;-0.33;100.00;97447.09;5131380;27;20419;-57
2022/01/27 07:17:21;;;;;;;14.77;7.43;;;;;;;-0.32;100.00;97453.94;5130739;27;20130;-56
2022/01/27 07:19:48;;;;;;;15.77;8.13;;;;;;;-0.31;100.00;97442.72;5131045;27;20043;-57
2022/01/27 07:22:16;;;;;;;16.73;8.20;;;;;;;-0.30;100.00;97449.56;5131063;27;20046;-56
2022/01/27 07:24:45;;;;;;;18.17;7.87;;;;;;;-0.25;100.00;97450.28;5130927;27;20042;-52
2022/01/27 07:27:14;;;;;;;13.63;6.73;;;;;;;-0.24;100.00;97451.94;5130903;27;20118;-56
2022/01/27 07:29:45;;;;;;;14.77;7.20;;;;;;;-0.25;100.00;97450.28;5130883;27;20834;-55
2022/01/27 07:32:12;;;;;;;15.77;7.43;;;;;;;-0.23;100.00;97445.91;5130783;27;20070;-50
2022/01/27 07:34:39;;;;;;;15.00;7.37;;;;;;;-0.25;100.00;97442.53;5130222;27;20054;-58
2022/01/27 07:37:06;;;;;;;11.53;6.93;;;;;;;-0.32;100.00;97445.34;5130667;27;20085;-55
2022/01/27 07:39:33;;;;;;;13.83;7.13;;;;;;;-0.27;100.00;97441.75;5130612;27;20049;-54
2022/01/27 07:42:01;;;;;;;15.47;7.43;;;;;;;-0.22;100.00;97437.25;5132099;27;20077;-57
2022/01/27 07:44:32;;;;;;;11.30;5.97;;;;;;;-0.19;100.00;97432.00;5112304;28;20515;-55
2022/01/27 07:46:59;;;;;;;17.00;7.03;;;;;;;-0.20;100.00;97432.91;5130785;28;20448;-54
2022/01/27 07:49:27;;;;;;;13.87;7.47;;;;;;;-0.16;100.00;97431.91;5130531;28;20050;-56
2022/01/27 07:51:54;;;;;;;16.07;7.27;;;;;;;-0.17;100.00;97437.13;5130644;28;20043;-53
2022/01/27 07:54:21;;;;;;;12.43;5.87;;;;;;;-0.17;100.00;97417.28;5130662;28;20109;-56
2022/01/27 07:56:48;;;;;;;11.47;6.13;;;;;;;-0.26;100.00;97412.41;5130322;28;20074;-54
2022/01/27 07:59:15;;;;;;;11.63;5.77;;;;;;;-0.21;100.00;97413.09;5130857;28;20555;-51
2022/01/27 08:01:43;;;;;;;13.13;6.50;;;;;;;-0.21;100.00;97420.84;5132239;28;20047;-55
2022/01/27 08:04:11;;;;;;;9.90;5.93;;;;;;;-0.06;100.00;97420.34;5132193;28;20064;-55
2022/01/27 08:06:38;;;;;;;14.30;7.30;;;;;;;0.08;100.00;97422.50;5132191;28;20049;-54
2022/01/27 08:09:06;;;;;;;9.87;6.50;;;;;;;0.06;100.00;97422.56;5130739;28;20045;-56
2022/01/27 08:11:33;;;;;;;12.23;6.60;;;;;;;0.08;100.00;97415.59;5130384;28;20104;-52
2022/01/27 08:14:00;;;;;;;12.37;6.77;;;;;;;0.19;100.00;97423.00;5130237;28;20054;-56
2022/01/27 08:16:28;;;;;;;14.83;7.33;;;;;;;0.39;100.00;97429.22;5130120;28;20062;-53
2022/01/27 08:18:57;;;;;;;11.40;7.17;;;;;;;0.44;100.00;97419.53;5130632;28;20042;-55
2022/01/27 08:21:24;;;;;;;13.63;7.43;;;;;;;0.51;100.00;97418.44;5130296;28;20487;-53
2022/01/27 08:23:53;;;;;;;12.03;6.60;;;;;;;0.61;100.00;97419.81;5130143;28;20047;-53
2022/01/27 08:26:31;;;;;;;17.27;8.23;;;;;;;0.75;100.00;97417.56;5131722;28;20050;-56
2022/01/27 08:29:08;;;;;;;15.50;7.90;;;;;;;0.72;100.00;97422.84;5129871;28;20035;-52
2022/01/27 08:31:43;;;;;;;13.00;6.40;;;;;;;0.59;100.00;97426.78;5129022;28;20035;-50
2022/01/27 08:34:17;;;;;;;13.87;6.93;;;;;;;0.43;100.00;97429.94;5129388;28;20118;-50
2022/01/27 08:36:44;;;;;;;11.33;7.13;;;;;;;0.24;100.00;97424.53;5130367;28;20119;-49
2022/01/27 08:39:11;;;;;;;10.73;6.97;;;;;;;0.12;100.00;97430.09;5130206;28;20115;-56
2022/01/27 08:41:38;;;;;;;15.20;7.80;;;;;;;0.08;100.00;97428.53;5130243;28;20039;-54
2022/01/27 08:44:06;;;;;;;13.33;7.27;;;;;;;0.18;100.00;97426.47;5129962;28;20122;-55
2022/01/27 08:46:33;;;;;;;14.90;6.90;;;;;;;0.24;100.00;97428.88;5130271;28;20059;-56
2022/01/27 08:49:00;;;;;;;11.07;6.80;;;;;;;0.38;100.00;97431.84;5129834;28;20051;-58
2022/01/27 08:51:30;;;;;;;9.47;6.13;;;;;;;0.52;100.00;97417.53;5107898;28;20096;-54
2022/01/27 08:53:57;;;;;;;13.30;6.87;;;;;;;0.55;100.00;97420.03;5098706;28;20048;-60
2022/01/27 08:56:24;;;;;;;9.93;6.33;;;;;;;0.71;100.00;97434.13;5092489;28;20401;-56
2022/01/27 08:58:52;;;;;;;13.40;6.43;;;;;;;0.59;100.00;97434.53;5095823;28;20040;-55
2022/01/27 09:01:20;;;;;;;13.13;7.23;;;;;;;0.58;100.00;97427.69;5113205;28;20143;-63
2022/01/27 09:03:46;;;;;;;14.37;7.70;;;;;;;0.64;100.00;97424.88;5112901;28;20074;-55
2022/01/27 09:06:13;;;;;;;12.40;7.50;;;;;;;0.66;100.00;97425.69;5112656;27;20510;-54
2022/01/27 09:08:42;;;;;;;17.07;7.33;;;;;;;0.67;100.00;97406.66;5096903;28;20051;-54
2022/01/27 09:11:09;;;;;;;11.60;7.40;;;;;;;0.69;100.00;97406.59;5092493;28;20086;-54
2022/01/27 09:13:37;;;;;;;15.33;7.50;;;;;;;0.73;100.00;97403.84;5093623;28;20044;-54
2022/01/27 09:16:05;;;;;;;10.93;6.80;;;;;;;0.78;100.00;97401.09;5098639;28;20046;-63
2022/01/27 09:18:33;;;;;;;13.30;6.80;;;;;;;0.63;100.00;97397.31;5112829;28;20052;-64
2022/01/27 09:21:04;;;;;;;13.60;6.53;;;;;;;0.57;100.00;97400.09;5112871;28;20518;-64
2022/01/27 09:23:32;;;;;;;10.90;6.13;;;;;;;0.51;100.00;97407.25;5112743;28;20047;-66
2022/01/27 09:26:05;;;;;;;17.43;6.63;;;;;;;0.46;100.00;97412.56;5089844;28;20068;-65
2022/01/27 09:28:32;;;;;;;14.57;7.87;;;;;;;0.70;100.00;97400.50;5091894;28;20091;-54
2022/01/27 09:31:01;;;;;;;12.30;7.17;;;;;;;0.88;100.00;97398.13;5091490;28;20289;-52
2022/01/27 09:33:30;;;;;;;17.83;8.80;;;;;;;0.88;100.00;97412.81;5091834;28;20040;-51
2022/01/27 09:35:57;;;;;;;13.67;7.90;;;;;;;0.90;100.00;97403.25;5110021;28;20067;-52
2022/01/27 09:38:24;;;;;;;14.37;8.17;;;;;;;0.83;100.00;97410.38;5111602;28;20426;-56
2022/01/27 09:40:52;;;;;;;17.87;8.73;;;;;;;0.79;100.00;97413.16;5094386;28;20136;-56
2022/01/27 09:43:21;;;;;;;16.40;8.37;;;;;;;0.77;100.00;97404.59;5093681;28;20147;-66
2022/01/27 09:45:51;;;;;;;13.90;7.50;;;;;;;0.79;100.00;97410.56;5111945;28;20054;-60
2022/01/27 09:48:19;;;;;;;13.03;7.30;;;;;;;0.69;100.00;97410.03;5103617;28;20544;-61
2022/01/27 09:50:59;;;;;;;14.63;8.37;;;;;;;0.61;100.00;97399.13;5122333;27;20059;-62
2022/01/27 09:53:27;;;;;;;14.77;8.60;;;;;;;0.57;100.00;97394.91;5130808;27;20043;-62
2022/01/27 09:55:54;;;;;;;16.33;9.00;;;;;;;0.87;100.00;97395.59;5132024;27;20054;-62
2022/01/27 09:58:22;;;;;;;14.33;7.40;;;;;;;0.99;100.00;97377.88;5131640;27;20039;-62
2022/01/27 10:00:50;;;;;;;16.30;8.83;;;;;;;0.89;100.00;97404.13;5131746;27;20051;-60
2022/01/27 10:03:17;;;;;;;15.53;8.70;;;;;;;0.72;100.00;97378.84;5129750;27;20050;-61
2022/01/27 10:05:46;;;;;;;12.80;5.93;;;;;;;0.86;100.00;97376.63;5132272;27;20042;-61
2022/01/27 10:08:16;;;;;;;13.77;7.97;;;;;;;0.84;100.00;97375.84;5132941;27;20487;-60
2022/01/27 10:10:44;;;;;;;15.63;9.13;;;;;;;0.94;100.00;97373.75;5128557;27;20043;-62
2022/01/27 10:13:26;;;;;;;16.37;8.30;;;;;;;0.69;100.00;97365.19;5132931;27;20031;-63
2022/01/27 10:15:56;;;;;;;15.97;8.83;;;;;;;0.71;100.00;97369.41;5130905;27;20074;-62
2022/01/27 10:18:25;;;;;;;19.33;8.77;;;;;;;0.62;100.00;97374.06;5132396;27;20047;-63
2022/01/27 10:20:59;;;;;;;15.67;8.67;;;;;;;0.51;100.00;97361.50;5131279;27;20043;-63
2022/01/27 10:23:30;;;;;;;16.97;9.10;;;;;;;0.61;100.00;97360.31;5131611;27;20127;-64
2022/01/27 10:26:08;;;;;;;15.37;9.00;;;;;;;0.56;100.00;97358.78;5131519;27;20133;-62
2022/01/27 10:28:44;;;;;;;20.33;10.30;;;;;;;0.46;100.00;97368.56;5131484;27;20055;-63
2022/01/27 10:31:18;;;;;;;18.07;9.17;;;;;;;0.65;100.00;97359.28;5130971;27;20047;-64
2022/01/27 10:33:48;;;;;;;19.70;10.37;;;;;;;0.95;100.00;97347.81;5131538;27;20046;-67
2022/01/27 10:36:24;;;;;;;19.43;9.60;;;;;;;0.68;100.00;97353.97;5112590;27;20047;-63
2022/01/27 10:38:53;;;;;;;17.20;10.00;;;;;;;0.38;100.00;97346.47;5131168;27;20031;-63
2022/01/27 10:41:21;;;;;;;21.13;9.27;;;;;;;0.53;100.00;97358.88;5132044;27;20489;-70
2022/01/27 10:43:49;;;;;;;19.33;10.47;;;;;;;0.67;100.00;97344.53;5131750;27;20066;-72
2022/01/27 10:46:23;;;;;;;22.27;11.00;;;;;;;0.57;100.00;97350.94;5131714;27;20100;-67
2022/01/27 10:48:57;;;;;;;18.63;10.27;;;;;;;0.59;100.00;97338.78;5131776;27;20043;-66
2022/01/27 10:51:28;;;;;;;21.57;11.10;;;;;;;0.77;100.00;97340.72;5131436;27;20055;-65
2022/01/27 10:54:01;;;;;;;19.40;10.47;;;;;;;0.94;100.00;97343.50;5131234;27;20092;-66
2022/01/27 10:56:30;;;;;;;23.83;10.27;;;;;;;0.86;100.00;97337.78;5131521;27;20070;-66
2022/01/27 10:59:00;;;;;;;19.87;10.17;;;;;;;0.90;100.00;97323.00;5131743;27;20066;-64
2022/01/27 11:01:32;;;;;;;19.50;9.13;;;;;;;0.93;100.00;97334.06;5132406;27;20039;-64
2022/01/27 11:04:01;;;;;;;21.80;10.03;;;;;;;1.06;100.00;97319.75;5132252;27;20092;-65
2022/01/27 11:06:31;;;;;;;15.73;8.97;;;;;;;1.09;100.00;97313.63;5131127;27;20050;-66
2022/01/27 11:09:01;;;;;;;19.33;11.07;;;;;;;1.26;100.00;97312.06;5131308;27;20035;-67
2022/01/27 11:11:28;;;;;;;20.27;10.50;;;;;;;1.32;100.00;97310.16;5131446;27;20043;-66
2022/01/27 11:13:59;;;;;;;21.03;10.80;;;;;;;1.32;100.00;97310.16;5113209;27;20074;-66
2022/01/27 11:16:33;;;;;;;19.87;10.13;;;;;;;1.44;100.00;97310.47;5132202;27;20096;-66
2022/01/27 11:19:17;;;;;;;20.87;9.20;;;;;;;1.38;100.00;97299.53;5131201;27;20063;-65
2022/01/27 11:21:49;;;;;;;19.67;10.50;;;;;;;1.04;100.00;97302.59;5131834;27;20100;-65
2022/01/27 11:24:24;;;;;;;22.53;11.67;;;;;;;1.13;100.00;97299.66;5113042;27;20499;-66
2022/01/27 11:26:54;;;;;;;19.90;10.90;;;;;;;0.98;100.00;97290.72;5131284;27;20066;-66
2022/01/27 11:29:24;;;;;;;27.00;14.03;;;;;;;0.83;100.00;97300.81;5131206;27;20042;-66
2022/01/27 11:32:24;;;;;;;29.30;14.97;;;;;;;0.82;100.00;97299.13;5128474;27;20510;-66
2022/01/27 11:34:55;;;;;;;28.67;13.37;;;;;;;0.69;100.00;97287.53;5088073;27;20126;-65
2022/01/27 11:37:33;;;;;;;22.63;12.30;;;;;;;0.60;100.00;97287.88;5131772;27;20039;-65
2022/01/27 11:40:05;;;;;;;24.70;14.80;;;;;;;0.66;100.00;97288.50;5131329;27;20031;-64
2022/01/27 11:43:03;;;;;;;31.65;14.32;;;;;;;0.57;100.00;97299.16;5131155;27;20047;-67